sensor_id;sensor_type;location;lat;lon;timestamp;pressure;altitude;pressure_sealevel;temperature;humidity
2192;BME280;1102;49.718;11.902;2023-04-10T00:00:33;97091.00;;;2.14;100.00
2192;BME280;1102;49.718;11.902;2023-04-10T00:03:01;97062.19;;;1.89;100.00
2192;BME280;1102;49.718;11.902;2023-04-10T00:05:28;97062.66;;;1.86;100.00
2192;BME280;1102;49.718;11.902;2023-04-10T00:07:55;97047.56;;;1.88;100.00
2192;BME280;1102;49.718;11.902;2023-04-10T00:10:22;97047.53;;;1.83;100.00
2192;BME280;1102;49.718;11.902;2023-04-10T00:12:51;97052.03;;;1.92;100.00
2192;BME280;1102;49.718;11.902;2023-04-10T00:15:19;97082.59;;;2.02;100.00
2192;BME280;1102;49.718;11.902;2023-04-10T00:17:46;97079.41;;;1.95;100.00
2192;BME280;1102;49.718;11.902;2023-04-10T00:20:13;97047.38;;;1.57;100.00
2192;BME280;1102;49.718;11.902;2023-04-10T00:22:39;97038.69;;;1.46;100.00
2192;BME280;1102;49.718;11.902;2023-04-10T00:25:09;97045.25;;;1.49;100.00
2192;BME280;1102;49.718;11.902;2023-04-10T00:27:36;97058.31;;;1.59;100.00
2192;BME280;1102;49.718;11.902;2023-04-10T00:30:03;97052.28;;;1.54;100.00
2192;BME280;1102;49.718;11.902;2023-04-10T00:32:30;97032.63;;;1.36;100.00
2192;BME280;1102;49.718;11.902;2023-04-10T00:34:57;97040.97;;;1.38;100.00
2192;BME280;1102;49.718;11.902;2023-04-10T00:37:24;97057.75;;;1.52;100.00
2192;BME280;1102;49.718;11.902;2023-04-10T00:39:50;97051.25;;;1.55;100.00
2192;BME280;1102;49.718;11.902;2023-04-10T00:42:17;97031.13;;;1.08;100.00
2192;BME280;1102;49.718;11.902;2023-04-10T00:44:44;96959.59;;;0.56;100.00
2192;BME280;1102;49.718;11.902;2023-04-10T00:47:12;97021.69;;;0.75;100.00
2192;BME280;1102;49.718;11.902;2023-04-10T00:49:40;97022.59;;;0.37;100.00
2192;BME280;1102;49.718;11.902;2023-04-10T00:52:07;97030.81;;;0.50;100.00
2192;BME280;1102;49.718;11.902;2023-04-10T00:54:35;97048.47;;;0.70;100.00
2192;BME280;1102;49.718;11.902;2023-04-10T00:59:50;97018.44;;;0.89;100.00
2192;BME280;1102;49.718;11.902;2023-04-10T01:02:18;97037.31;;;1.07;100.00
2192;BME280;1102;49.718;11.902;2023-04-10T01:04:46;97025.91;;;1.08;100.00
2192;BME280;1102;49.718;11.902;2023-04-10T01:10:28;97047.34;;;1.20;100.00
2192;BME280;1102;49.718;11.902;2023-04-10T01:13:22;97038.88;;;1.03;100.00
2192;BME280;1102;49.718;11.902;2023-04-10T01:18:41;97038.03;;;1.29;100.00
2192;BME280;1102;49.718;11.902;2023-04-10T01:21:10;97044.28;;;1.28;100.00
2192;BME280;1102;49.718;11.902;2023-04-10T01:29:19;97001.09;;;0.68;100.00
2192;BME280;1102;49.718;11.902;2023-04-10T01:31:53;96999.38;;;0.30;100.00
2192;BME280;1102;49.718;11.902;2023-04-10T01:34:25;97029.16;;;0.66;100.00
2192;BME280;1102;49.718;11.902;2023-04-10T01:37:05;97020.66;;;0.49;100.00
2192;BME280;1102;49.718;11.902;2023-04-10T01:39:36;97021.28;;;0.61;100.00
2192;BME280;1102;49.718;11.902;2023-04-10T01:42:06;97002.31;;;0.61;100.00
2192;BME280;1102;49.718;11.902;2023-04-10T01:44:41;97033.16;;;0.79;100.00
2192;BME280;1102;49.718;11.902;2023-04-10T01:47:08;96999.28;;;0.69;100.00
2192;BME280;1102;49.718;11.902;2023-04-10T01:49:37;97029.88;;;0.88;100.00
2192;BME280;1102;49.718;11.902;2023-04-10T01:52:09;97018.50;;;0.68;100.00
2192;BME280;1102;49.718;11.902;2023-04-10T01:54:37;97025.19;;;0.58;100.00
2192;BME280;1102;49.718;11.902;2023-04-10T01:57:04;97032.50;;;0.40;100.00
2192;BME280;1102;49.718;11.902;2023-04-10T01:59:50;97044.25;;;0.42;100.00
2192;BME280;1102;49.718;11.902;2023-04-10T02:02:17;97002.66;;;0.20;100.00
2192;BME280;1102;49.718;11.902;2023-04-10T02:04:43;97026.97;;;0.31;100.00
2192;BME280;1102;49.718;11.902;2023-04-10T02:07:30;97034.03;;;0.36;100.00
2192;BME280;1102;49.718;11.902;2023-04-10T02:10:09;97002.66;;;0.42;100.00
2192;BME280;1102;49.718;11.902;2023-04-10T02:12:52;97015.53;;;0.32;100.00
2192;BME280;1102;49.718;11.902;2023-04-10T02:15:22;97031.59;;;0.51;100.00
2192;BME280;1102;49.718;11.902;2023-04-10T02:17:51;97025.03;;;0.43;100.00
2192;BME280;1102;49.718;11.902;2023-04-10T02:20:19;97021.94;;;0.03;100.00
2192;BME280;1102;49.718;11.902;2023-04-10T02:22:47;97000.66;;;0.06;100.00
2192;BME280;1102;49.718;11.902;2023-04-10T02:25:15;97034.09;;;0.19;100.00
2192;BME280;1102;49.718;11.902;2023-04-10T02:27:42;97007.44;;;0.28;100.00
2192;BME280;1102;49.718;11.902;2023-04-10T02:30:09;97027.13;;;0.46;100.00
2192;BME280;1102;49.718;11.902;2023-04-10T02:32:36;97018.25;;;0.42;100.00
2192;BME280;1102;49.718;11.902;2023-04-10T02:35:06;97031.25;;;0.42;100.00
2192;BME280;1102;49.718;11.902;2023-04-10T02:37:35;97032.66;;;0.28;100.00
2192;BME280;1102;49.718;11.902;2023-04-10T02:40:03;97037.19;;;0.16;100.00
2192;BME280;1102;49.718;11.902;2023-04-10T02:42:38;96997.41;;;-0.07;100.00
2192;BME280;1102;49.718;11.902;2023-04-10T02:45:06;97034.41;;;0.22;100.00
2192;BME280;1102;49.718;11.902;2023-04-10T02:47:37;97039.34;;;0.24;100.00
2192;BME280;1102;49.718;11.902;2023-04-10T02:50:04;97006.94;;;0.10;100.00
2192;BME280;1102;49.718;11.902;2023-04-10T02:52:34;97042.38;;;0.16;100.00
2192;BME280;1102;49.718;11.902;2023-04-10T02:55:01;97020.69;;;0.05;100.00
2192;BME280;1102;49.718;11.902;2023-04-10T02:57:33;97000.47;;;-0.10;100.00
2192;BME280;1102;49.718;11.902;2023-04-10T03:00:00;96979.81;;;-0.21;100.00
2192;BME280;1102;49.718;11.902;2023-04-10T03:02:33;96934.78;;;-0.49;100.00
2192;BME280;1102;49.718;11.902;2023-04-10T03:05:07;97012.81;;;-0.22;100.00
2192;BME280;1102;49.718;11.902;2023-04-10T03:07:34;97007.84;;;-0.23;100.00
2192;BME280;1102;49.718;11.902;2023-04-10T03:10:02;97001.88;;;-0.24;100.00
2192;BME280;1102;49.718;11.902;2023-04-10T03:12:29;97014.31;;;-0.04;100.00
2192;BME280;1102;49.718;11.902;2023-04-10T03:14:55;97020.28;;;-0.04;100.00
2192;BME280;1102;49.718;11.902;2023-04-10T03:17:22;96996.66;;;-0.24;100.00
2192;BME280;1102;49.718;11.902;2023-04-10T03:19:49;97019.19;;;-0.30;100.00
2192;BME280;1102;49.718;11.902;2023-04-10T03:22:16;96973.63;;;-0.37;100.00
2192;BME280;1102;49.718;11.902;2023-04-10T03:24:43;97024.72;;;-0.04;100.00
2192;BME280;1102;49.718;11.902;2023-04-10T03:27:10;97007.47;;;-0.32;100.00
2192;BME280;1102;49.718;11.902;2023-04-10T03:29:37;97000.00;;;-0.45;100.00
2192;BME280;1102;49.718;11.902;2023-04-10T03:32:04;96988.09;;;-0.63;100.00
2192;BME280;1102;49.718;11.902;2023-04-10T03:34:33;97000.88;;;-0.40;100.00
2192;BME280;1102;49.718;11.902;2023-04-10T03:36:59;97015.00;;;-0.31;100.00
2192;BME280;1102;49.718;11.902;2023-04-10T03:39:26;97010.75;;;-0.20;100.00
2192;BME280;1102;49.718;11.902;2023-04-10T03:41:52;97028.63;;;-0.23;100.00
2192;BME280;1102;49.718;11.902;2023-04-10T03:44:23;96968.31;;;-0.47;100.00
2192;BME280;1102;49.718;11.902;2023-04-10T03:46:49;96994.38;;;-0.20;100.00
2192;BME280;1102;49.718;11.902;2023-04-10T03:49:16;96985.72;;;-0.26;100.00
2192;BME280;1102;49.718;11.902;2023-04-10T03:51:43;97001.00;;;-0.30;100.00
2192;BME280;1102;49.718;11.902;2023-04-10T03:54:10;96990.66;;;-0.46;100.00
2192;BME280;1102;49.718;11.902;2023-04-10T03:56:36;97014.59;;;-0.22;100.00
2192;BME280;1102;49.718;11.902;2023-04-10T03:59:03;96988.13;;;-0.58;100.00
2192;BME280;1102;49.718;11.902;2023-04-10T04:01:36;96976.91;;;-0.80;100.00
2192;BME280;1102;49.718;11.902;2023-04-10T04:04:07;97012.56;;;-0.76;100.00
2192;BME280;1102;49.718;11.902;2023-04-10T04:06:56;97016.72;;;-0.92;100.00
2192;BME280;1102;49.718;11.902;2023-04-10T04:09:46;97015.75;;;-1.19;100.00
2192;BME280;1102;49.718;11.902;2023-04-10T04:12:33;96991.31;;;-1.06;100.00
2192;BME280;1102;49.718;11.902;2023-04-10T04:15:03;96976.38;;;-0.99;100.00
2192;BME280;1102;49.718;11.902;2023-04-10T04:17:45;97016.00;;;-0.53;100.00
2192;BME280;1102;49.718;11.902;2023-04-10T04:20:30;97011.47;;;-0.80;100.00
2192;BME280;1102;49.718;11.902;2023-04-10T04:23:00;97008.22;;;-0.87;100.00
2192;BME280;1102;49.718;11.902;2023-04-10T04:25:41;97010.41;;;-1.12;100.00
2192;BME280;1102;49.718;11.902;2023-04-10T04:28:21;97021.13;;;-0.92;100.00
2192;BME280;1102;49.718;11.902;2023-04-10T04:31:09;97012.88;;;-0.89;100.00
2192;BME280;1102;49.718;11.902;2023-04-10T04:33:56;97036.47;;;-0.74;100.00
2192;BME280;1102;49.718;11.902;2023-04-10T04:36:36;97013.00;;;-0.96;100.00
2192;BME280;1102;49.718;11.902;2023-04-10T04:39:17;97029.94;;;-0.76;100.00
2192;BME280;1102;49.718;11.902;2023-04-10T04:41:49;97040.00;;;-0.63;100.00
2192;BME280;1102;49.718;11.902;2023-04-10T04:44:34;97028.50;;;-0.67;100.00
2192;BME280;1102;49.718;11.902;2023-04-10T04:47:14;97029.78;;;-0.70;100.00
2192;BME280;1102;49.718;11.902;2023-04-10T04:49:59;97027.72;;;-0.68;100.00
2192;BME280;1102;49.718;11.902;2023-04-10T04:52:44;97019.06;;;-0.56;100.00
2192;BME280;1102;49.718;11.902;2023-04-10T04:55:37;97040.22;;;-0.48;100.00
2192;BME280;1102;49.718;11.902;2023-04-10T04:58:23;96997.44;;;-1.12;100.00
2192;BME280;1102;49.718;11.902;2023-04-10T05:01:08;97010.34;;;-1.17;100.00
2192;BME280;1102;49.718;11.902;2023-04-10T05:04:08;97025.00;;;-0.78;100.00
2192;BME280;1102;49.718;11.902;2023-04-10T05:06:54;97007.03;;;-0.63;100.00
2192;BME280;1102;49.718;11.902;2023-04-10T05:09:52;97012.38;;;-0.52;100.00
2192;BME280;1102;49.718;11.902;2023-04-10T05:12:37;97044.38;;;-0.30;100.00
2192;BME280;1102;49.718;11.902;2023-04-10T05:15:27;97046.03;;;-0.24;100.00
2192;BME280;1102;49.718;11.902;2023-04-10T05:18:17;97042.75;;;-0.14;100.00
2192;BME280;1102;49.718;11.902;2023-04-10T05:21:02;97037.06;;;0.06;100.00
2192;BME280;1102;49.718;11.902;2023-04-10T05:23:41;97018.25;;;-0.02;100.00
2192;BME280;1102;49.718;11.902;2023-04-10T05:26:27;97037.91;;;0.11;100.00
2192;BME280;1102;49.718;11.902;2023-04-10T05:29:14;97021.47;;;0.06;100.00
2192;BME280;1102;49.718;11.902;2023-04-10T05:32:08;97048.78;;;0.08;100.00
2192;BME280;1102;49.718;11.902;2023-04-10T05:34:40;97036.91;;;-0.05;100.00
2192;BME280;1102;49.718;11.902;2023-04-10T05:37:17;97048.19;;;-0.16;100.00
2192;BME280;1102;49.718;11.902;2023-04-10T05:39:54;97030.97;;;-0.22;100.00
2192;BME280;1102;49.718;11.902;2023-04-10T05:42:35;97042.66;;;-0.03;100.00
2192;BME280;1102;49.718;11.902;2023-04-10T05:45:21;97044.22;;;-0.02;100.00
2192;BME280;1102;49.718;11.902;2023-04-10T05:48:11;97044.13;;;0.10;100.00
2192;BME280;1102;49.718;11.902;2023-04-10T05:50:56;97071.72;;;0.33;100.00
2192;BME280;1102;49.718;11.902;2023-04-10T05:53:34;97046.69;;;0.27;100.00
2192;BME280;1102;49.718;11.902;2023-04-10T05:56:24;97064.38;;;0.52;100.00
2192;BME280;1102;49.718;11.902;2023-04-10T05:59:22;97031.84;;;0.49;100.00
2192;BME280;1102;49.718;11.902;2023-04-10T06:01:58;97041.22;;;0.77;100.00
2192;BME280;1102;49.718;11.902;2023-04-10T06:04:24;97064.22;;;1.12;100.00
2192;BME280;1102;49.718;11.902;2023-04-10T06:06:54;97070.69;;;1.37;100.00
2192;BME280;1102;49.718;11.902;2023-04-10T06:09:21;97035.91;;;1.21;100.00
2192;BME280;1102;49.718;11.902;2023-04-10T06:11:48;97048.00;;;1.37;100.00
2192;BME280;1102;49.718;11.902;2023-04-10T06:14:18;97066.69;;;1.61;100.00
2192;BME280;1102;49.718;11.902;2023-04-10T06:16:45;97046.94;;;1.70;100.00
2192;BME280;1102;49.718;11.902;2023-04-10T06:19:13;97035.00;;;1.80;100.00
2192;BME280;1102;49.718;11.902;2023-04-10T06:21:40;97036.63;;;1.91;100.00
2192;BME280;1102;49.718;11.902;2023-04-10T06:24:07;96992.19;;;1.70;100.00
2192;BME280;1102;49.718;11.902;2023-04-10T06:26:36;97057.16;;;2.29;100.00
2192;BME280;1102;49.718;11.902;2023-04-10T06:29:03;97029.56;;;2.44;100.00
2192;BME280;1102;49.718;11.902;2023-04-10T06:31:32;97040.81;;;2.59;100.00
2192;BME280;1102;49.718;11.902;2023-04-10T06:33:58;97030.19;;;2.96;100.00
2192;BME280;1102;49.718;11.902;2023-04-10T06:36:26;97042.22;;;3.28;100.00
2192;BME280;1102;49.718;11.902;2023-04-10T06:39:00;97066.78;;;3.88;100.00
2192;BME280;1102;49.718;11.902;2023-04-10T06:41:28;97019.72;;;3.68;100.00
2192;BME280;1102;49.718;11.902;2023-04-10T06:44:04;97029.66;;;3.76;100.00
2192;BME280;1102;49.718;11.902;2023-04-10T06:46:31;97056.59;;;3.76;100.00
2192;BME280;1102;49.718;11.902;2023-04-10T06:48:58;97027.72;;;4.07;100.00
2192;BME280;1102;49.718;11.902;2023-04-10T06:51:24;97036.09;;;4.09;100.00
2192;BME280;1102;49.718;11.902;2023-04-10T06:53:51;97038.03;;;4.48;100.00
2192;BME280;1102;49.718;11.902;2023-04-10T06:56:18;97042.72;;;4.56;100.00
2192;BME280;1102;49.718;11.902;2023-04-10T06:58:45;97013.09;;;4.60;100.00
2192;BME280;1102;49.718;11.902;2023-04-10T07:01:11;97051.19;;;4.87;100.00
2192;BME280;1102;49.718;11.902;2023-04-10T07:03:38;97049.47;;;5.11;100.00
2192;BME280;1102;49.718;11.902;2023-04-10T07:06:05;97044.84;;;5.37;100.00
2192;BME280;1102;49.718;11.902;2023-04-10T07:08:33;97043.19;;;5.75;100.00
2192;BME280;1102;49.718;11.902;2023-04-10T07:11:00;97069.56;;;5.89;100.00
2192;BME280;1102;49.718;11.902;2023-04-10T07:13:26;97044.91;;;5.61;100.00
2192;BME280;1102;49.718;11.902;2023-04-10T07:15:53;97025.75;;;5.89;100.00
2192;BME280;1102;49.718;11.902;2023-04-10T07:18:20;97046.09;;;6.27;100.00
2192;BME280;1102;49.718;11.902;2023-04-10T07:20:47;97063.00;;;6.39;100.00
2192;BME280;1102;49.718;11.902;2023-04-10T07:23:14;97043.41;;;6.56;100.00
2192;BME280;1102;49.718;11.902;2023-04-10T07:25:41;97030.66;;;6.44;100.00
2192;BME280;1102;49.718;11.902;2023-04-10T07:28:08;96982.25;;;6.69;100.00
2192;BME280;1102;49.718;11.902;2023-04-10T07:30:34;97050.50;;;7.11;100.00
2192;BME280;1102;49.718;11.902;2023-04-10T07:33:02;97055.78;;;7.44;100.00
2192;BME280;1102;49.718;11.902;2023-04-10T07:35:29;97036.09;;;7.09;100.00
2192;BME280;1102;49.718;11.902;2023-04-10T07:37:55;97055.00;;;7.44;100.00
2192;BME280;1102;49.718;11.902;2023-04-10T07:40:22;97053.25;;;7.39;100.00
2192;BME280;1102;49.718;11.902;2023-04-10T07:42:49;97069.78;;;7.58;100.00
2192;BME280;1102;49.718;11.902;2023-04-10T07:45:18;97059.88;;;7.69;100.00
2192;BME280;1102;49.718;11.902;2023-04-10T07:47:45;97008.63;;;7.48;100.00
2192;BME280;1102;49.718;11.902;2023-04-10T07:50:12;97052.13;;;7.91;100.00
2192;BME280;1102;49.718;11.902;2023-04-10T07:52:38;97056.63;;;8.32;100.00
2192;BME280;1102;49.718;11.902;2023-04-10T07:55:05;97028.72;;;8.17;100.00
2192;BME280;1102;49.718;11.902;2023-04-10T07:57:32;97051.94;;;8.15;100.00
2192;BME280;1102;49.718;11.902;2023-04-10T07:59:58;97023.47;;;8.17;100.00
2192;BME280;1102;49.718;11.902;2023-04-10T08:02:25;97040.03;;;8.18;100.00
2192;BME280;1102;49.718;11.902;2023-04-10T08:04:52;97058.56;;;8.81;100.00
2192;BME280;1102;49.718;11.902;2023-04-10T08:07:19;97057.59;;;8.64;100.00
2192;BME280;1102;49.718;11.902;2023-04-10T08:09:49;96997.59;;;8.33;100.00
2192;BME280;1102;49.718;11.902;2023-04-10T08:12:16;97028.03;;;8.53;100.00
2192;BME280;1102;49.718;11.902;2023-04-10T08:14:43;97041.69;;;8.69;100.00
2192;BME280;1102;49.718;11.902;2023-04-10T08:17:10;97032.22;;;8.81;100.00
2192;BME280;1102;49.718;11.902;2023-04-10T08:19:41;97037.84;;;8.88;100.00
2192;BME280;1102;49.718;11.902;2023-04-10T08:22:09;97027.66;;;8.96;100.00
2192;BME280;1102;49.718;11.902;2023-04-10T08:24:35;97019.69;;;8.87;100.00
2192;BME280;1102;49.718;11.902;2023-04-10T08:27:02;97018.94;;;8.73;100.00
2192;BME280;1102;49.718;11.902;2023-04-10T08:29:29;97002.81;;;8.74;100.00
2192;BME280;1102;49.718;11.902;2023-04-10T08:31:56;96984.69;;;9.17;100.00
2192;BME280;1102;49.718;11.902;2023-04-10T08:34:26;97019.16;;;9.43;100.00
2192;BME280;1102;49.718;11.902;2023-04-10T08:36:53;97011.25;;;9.43;100.00
2192;BME280;1102;49.718;11.902;2023-04-10T08:39:20;97032.13;;;9.09;100.00
2192;BME280;1102;49.718;11.902;2023-04-10T08:41:47;97010.22;;;8.86;100.00
2192;BME280;1102;49.718;11.902;2023-04-10T08:44:14;97007.75;;;8.89;100.00
2192;BME280;1102;49.718;11.902;2023-04-10T08:46:43;97043.53;;;9.71;100.00
2192;BME280;1102;49.718;11.902;2023-04-10T08:49:17;97007.75;;;9.34;100.00
2192;BME280;1102;49.718;11.902;2023-04-10T08:51:57;97019.69;;;9.32;100.00
2192;BME280;1102;49.718;11.902;2023-04-10T08:54:30;97035.13;;;9.38;100.00
2192;BME280;1102;49.718;11.902;2023-04-10T08:56:58;97032.94;;;9.63;100.00
2192;BME280;1102;49.718;11.902;2023-04-10T08:59:27;97012.56;;;9.10;100.00
2192;BME280;1102;49.718;11.902;2023-04-10T09:01:56;97013.56;;;9.45;100.00
2192;BME280;1102;49.718;11.902;2023-04-10T09:04:25;96997.19;;;9.57;100.00
2192;BME280;1102;49.718;11.902;2023-04-10T09:06:52;96995.16;;;9.85;100.00
2192;BME280;1102;49.718;11.902;2023-04-10T09:09:19;97030.16;;;9.90;100.00
2192;BME280;1102;49.718;11.902;2023-04-10T09:14:24;97023.41;;;10.15;100.00
2192;BME280;1102;49.718;11.902;2023-04-10T09:16:52;97015.84;;;10.22;100.00
2192;BME280;1102;49.718;11.902;2023-04-10T09:19:30;97003.53;;;9.87;100.00
2192;BME280;1102;49.718;11.902;2023-04-10T09:21:57;97020.72;;;10.06;100.00
2192;BME280;1102;49.718;11.902;2023-04-10T09:24:25;97022.59;;;10.15;100.00
2192;BME280;1102;49.718;11.902;2023-04-10T09:26:52;96993.00;;;9.95;100.00
2192;BME280;1102;49.718;11.902;2023-04-10T09:29:19;96936.81;;;9.64;100.00
2192;BME280;1102;49.718;11.902;2023-04-10T09:31:46;97005.84;;;10.19;100.00
2192;BME280;1102;49.718;11.902;2023-04-10T09:34:19;97011.72;;;10.64;100.00
2192;BME280;1102;49.718;11.902;2023-04-10T09:36:54;97023.25;;;10.69;100.00
2192;BME280;1102;49.718;11.902;2023-04-10T09:39:21;96979.34;;;10.50;100.00
2192;BME280;1102;49.718;11.902;2023-04-10T09:41:58;96989.63;;;10.60;100.00
2192;BME280;1102;49.718;11.902;2023-04-10T09:44:28;97018.75;;;11.21;100.00
2192;BME280;1102;49.718;11.902;2023-04-10T09:47:17;96991.84;;;10.84;100.00
2192;BME280;1102;49.718;11.902;2023-04-10T09:49:49;96990.44;;;10.87;100.00
2192;BME280;1102;49.718;11.902;2023-04-10T09:52:21;97010.94;;;10.55;100.00
2192;BME280;1102;49.718;11.902;2023-04-10T09:54:48;96941.97;;;10.17;100.00
2192;BME280;1102;49.718;11.902;2023-04-10T09:57:17;96929.25;;;9.80;100.00
2192;BME280;1102;49.718;11.902;2023-04-10T09:59:55;96989.16;;;10.67;100.00
2192;BME280;1102;49.718;11.902;2023-04-10T10:02:24;96982.97;;;10.98;100.00
2192;BME280;1102;49.718;11.902;2023-04-10T10:04:51;96889.31;;;10.29;100.00
2192;BME280;1102;49.718;11.902;2023-04-10T10:07:21;96980.63;;;11.13;100.00
2192;BME280;1102;49.718;11.902;2023-04-10T10:09:50;96979.22;;;11.16;100.00
2192;BME280;1102;49.718;11.902;2023-04-10T10:12:33;96941.41;;;10.98;100.00
2192;BME280;1102;49.718;11.902;2023-04-10T10:15:06;96968.59;;;11.42;100.00
2192;BME280;1102;49.718;11.902;2023-04-10T10:17:38;96963.94;;;11.30;100.00
2192;BME280;1102;49.718;11.902;2023-04-10T10:20:08;96935.50;;;11.01;100.00
2192;BME280;1102;49.718;11.902;2023-04-10T10:22:36;96957.19;;;11.50;100.00
2192;BME280;1102;49.718;11.902;2023-04-10T10:25:03;96954.94;;;11.69;100.00
2192;BME280;1102;49.718;11.902;2023-04-10T10:27:30;96931.91;;;11.61;100.00
2192;BME280;1102;49.718;11.902;2023-04-10T10:30:00;96941.84;;;11.81;100.00
2192;BME280;1102;49.718;11.902;2023-04-10T10:32:46;96909.47;;;11.67;100.00
2192;BME280;1102;49.718;11.902;2023-04-10T10:35:15;96917.97;;;11.90;100.00
2192;BME280;1102;49.718;11.902;2023-04-10T10:37:42;96915.34;;;11.81;100.00
2192;BME280;1102;49.718;11.902;2023-04-10T10:40:16;96911.38;;;11.96;100.00
2192;BME280;1102;49.718;11.902;2023-04-10T10:45:31;96915.91;;;11.96;99.00
2192;BME280;1102;49.718;11.902;2023-04-10T10:47:58;96911.41;;;12.17;100.00
2192;BME280;1102;49.718;11.902;2023-04-10T10:50:52;96929.16;;;12.46;99.51
2192;BME280;1102;49.718;11.902;2023-04-10T10:53:42;96888.00;;;12.40;98.81
2192;BME280;1102;49.718;11.902;2023-04-10T10:58:52;96910.63;;;12.79;97.50
2192;BME280;1102;49.718;11.902;2023-04-10T11:01:22;96918.31;;;12.93;95.72
2192;BME280;1102;49.718;11.902;2023-04-10T11:03:49;96861.31;;;12.78;94.63
2192;BME280;1102;49.718;11.902;2023-04-10T11:06:18;96861.19;;;12.75;95.65
2192;BME280;1102;49.718;11.902;2023-04-10T11:08:46;96906.72;;;12.97;93.36
2192;BME280;1102;49.718;11.902;2023-04-10T11:11:21;96899.28;;;12.91;89.91
2192;BME280;1102;49.718;11.902;2023-04-10T11:19:07;96892.78;;;13.34;88.02
2192;BME280;1102;49.718;11.902;2023-04-10T11:22:03;96898.00;;;12.76;90.47
2192;BME280;1102;49.718;11.902;2023-04-10T11:24:58;96894.50;;;13.17;88.91
2192;BME280;1102;49.718;11.902;2023-04-10T11:27:42;96883.97;;;12.76;86.59
2192;BME280;1102;49.718;11.902;2023-04-10T11:32:57;96899.00;;;12.51;88.99
2192;BME280;1102;49.718;11.902;2023-04-10T11:35:25;96842.88;;;11.77;91.31
2192;BME280;1102;49.718;11.902;2023-04-10T11:38:14;96880.81;;;12.82;87.82
2192;BME280;1102;49.718;11.902;2023-04-10T11:40:58;96865.91;;;13.02;84.74
2192;BME280;1102;49.718;11.902;2023-04-10T11:43:27;96860.56;;;12.90;85.40
2192;BME280;1102;49.718;11.902;2023-04-10T11:46:03;96824.91;;;13.12;86.39
2192;BME280;1102;49.718;11.902;2023-04-10T11:48:31;96851.06;;;13.95;84.86
2192;BME280;1102;49.718;11.902;2023-04-10T11:50:58;96884.28;;;14.01;80.63
2192;BME280;1102;49.718;11.902;2023-04-10T11:53:27;96832.34;;;14.04;78.77
2192;BME280;1102;49.718;11.902;2023-04-10T11:55:55;96843.75;;;13.92;79.37
2192;BME280;1102;49.718;11.902;2023-04-10T11:58:26;96865.44;;;14.06;79.29
2192;BME280;1102;49.718;11.902;2023-04-10T12:03:38;96826.38;;;13.58;80.94
2192;BME280;1102;49.718;11.902;2023-04-10T12:06:10;96842.84;;;13.88;80.81
2192;BME280;1102;49.718;11.902;2023-04-10T12:08:47;96849.72;;;14.41;78.85
2192;BME280;1102;49.718;11.902;2023-04-10T12:11:22;96848.00;;;14.89;78.35
2192;BME280;1102;49.718;11.902;2023-04-10T12:13:53;96852.00;;;14.15;78.36
2192;BME280;1102;49.718;11.902;2023-04-10T12:16:21;96845.84;;;14.39;76.77
2192;BME280;1102;49.718;11.902;2023-04-10T12:18:49;96829.72;;;14.44;74.86
2192;BME280;1102;49.718;11.902;2023-04-10T12:21:16;96855.84;;;13.41;75.75
2192;BME280;1102;49.718;11.902;2023-04-10T12:23:43;96841.59;;;13.00;76.85
2192;BME280;1102;49.718;11.902;2023-04-10T12:28:37;96839.25;;;13.68;77.50
2192;BME280;1102;49.718;11.902;2023-04-10T12:31:04;96844.56;;;13.68;77.30
2192;BME280;1102;49.718;11.902;2023-04-10T12:33:31;96833.16;;;13.43;76.91
2192;BME280;1102;49.718;11.902;2023-04-10T12:35:58;96814.44;;;13.76;77.23
2192;BME280;1102;49.718;11.902;2023-04-10T12:41:04;96823.63;;;13.79;76.07
2192;BME280;1102;49.718;11.902;2023-04-10T12:43:38;96822.69;;;13.14;77.46
2192;BME280;1102;49.718;11.902;2023-04-10T12:46:06;96768.31;;;12.75;77.48
2192;BME280;1102;49.718;11.902;2023-04-10T12:48:34;96782.41;;;12.99;77.19
2192;BME280;1102;49.718;11.902;2023-04-10T12:51:01;96813.72;;;14.04;74.89
2192;BME280;1102;49.718;11.902;2023-04-10T12:53:29;96781.09;;;14.75;73.74
2192;BME280;1102;49.718;11.902;2023-04-10T12:55:57;96811.50;;;14.06;74.40
2192;BME280;1102;49.718;11.902;2023-04-10T12:58:25;96792.97;;;13.45;76.64
2192;BME280;1102;49.718;11.902;2023-04-10T13:00:54;96757.66;;;13.56;75.23
2192;BME280;1102;49.718;11.902;2023-04-10T13:03:24;96772.91;;;13.59;75.98
2192;BME280;1102;49.718;11.902;2023-04-10T13:05:51;96781.66;;;14.68;74.28
2192;BME280;1102;49.718;11.902;2023-04-10T13:08:19;96755.19;;;14.16;72.73
2192;BME280;1102;49.718;11.902;2023-04-10T13:10:47;96736.06;;;14.54;71.04
2192;BME280;1102;49.718;11.902;2023-04-10T13:13:15;96756.53;;;14.38;72.85
2192;BME280;1102;49.718;11.902;2023-04-10T13:15:42;96788.06;;;15.27;72.11
2192;BME280;1102;49.718;11.902;2023-04-10T13:18:09;96777.84;;;15.29;71.56
2192;BME280;1102;49.718;11.902;2023-04-10T13:20:38;96779.19;;;16.05;70.11
2192;BME280;1102;49.718;11.902;2023-04-10T13:23:06;96759.72;;;16.05;68.65
2192;BME280;1102;49.718;11.902;2023-04-10T13:25:36;96736.59;;;15.38;67.29
2192;BME280;1102;49.718;11.902;2023-04-10T13:28:08;96770.09;;;15.40;66.47
2192;BME280;1102;49.718;11.902;2023-04-10T13:30:40;96761.25;;;15.86;65.93
2192;BME280;1102;49.718;11.902;2023-04-10T13:33:08;96757.72;;;15.82;66.88
2192;BME280;1102;49.718;11.902;2023-04-10T13:36:00;96744.38;;;15.63;65.73
2192;BME280;1102;49.718;11.902;2023-04-10T13:38:27;96720.22;;;14.89;65.92
2192;BME280;1102;49.718;11.902;2023-04-10T13:40:54;96723.19;;;14.00;67.83
2192;BME280;1102;49.718;11.902;2023-04-10T13:43:21;96712.81;;;15.14;68.31
2192;BME280;1102;49.718;11.902;2023-04-10T13:45:47;96701.75;;;14.96;67.69
2192;BME280;1102;49.718;11.902;2023-04-10T13:48:15;96732.31;;;15.02;67.67
2192;BME280;1102;49.718;11.902;2023-04-10T13:50:47;96702.72;;;15.58;66.20
2192;BME280;1102;49.718;11.902;2023-04-10T13:53:14;96728.25;;;16.33;66.42
2192;BME280;1102;49.718;11.902;2023-04-10T13:55:41;96710.72;;;15.58;66.53
2192;BME280;1102;49.718;11.902;2023-04-10T13:58:10;96713.88;;;15.99;67.02
2192;BME280;1102;49.718;11.902;2023-04-10T14:00:38;96712.59;;;16.54;66.53
2192;BME280;1102;49.718;11.902;2023-04-10T14:03:06;96695.91;;;16.58;65.02
2192;BME280;1102;49.718;11.902;2023-04-10T14:05:35;96695.28;;;16.45;65.24
2192;BME280;1102;49.718;11.902;2023-04-10T14:08:02;96702.44;;;15.44;66.41